sensor_id;sensor_type;location;lat;lon;timestamp;pressure;altitude;pressure_sealevel;temperature;humidity
56402;BME280;42299;35.160;26.100;2024-03-22T00:00:59;101359.28;;;9.63;100.00
56402;BME280;42299;35.160;26.100;2024-03-22T00:06:21;101357.63;;;9.66;100.00
56402;BME280;42299;35.160;26.100;2024-03-22T00:11:44;101349.94;;;9.74;100.00
56402;BME280;42299;35.160;26.100;2024-03-22T00:17:08;101347.00;;;9.63;100.00
56402;BME280;42299;35.160;26.100;2024-03-22T00:22:31;101327.41;;;9.53;100.00
56402;BME280;42299;35.160;26.100;2024-03-22T00:27:54;101331.53;;;9.45;100.00
56402;BME280;42299;35.160;26.100;2024-03-22T00:33:18;101314.63;;;9.37;100.00
56402;BME280;42299;35.160;26.100;2024-03-22T00:38:41;101305.47;;;9.54;100.00
56402;BME280;42299;35.160;26.100;2024-03-22T00:44:04;101302.31;;;9.36;100.00
56402;BME280;42299;35.160;26.100;2024-03-22T00:49:28;101305.78;;;9.05;100.00
56402;BME280;42299;35.160;26.100;2024-03-22T00:54:50;101307.81;;;8.86;100.00
56402;BME280;42299;35.160;26.100;2024-03-22T01:00:14;101300.75;;;8.85;100.00
56402;BME280;42299;35.160;26.100;2024-03-22T01:05:38;101296.84;;;8.72;100.00
56402;BME280;42299;35.160;26.100;2024-03-22T01:11:03;101284.13;;;8.86;100.00
56402;BME280;42299;35.160;26.100;2024-03-22T01:16:26;101276.88;;;8.80;100.00
56402;BME280;42299;35.160;26.100;2024-03-22T01:21:50;101273.75;;;8.63;100.00
56402;BME280;42299;35.160;26.100;2024-03-22T01:27:12;101266.88;;;8.40;100.00
56402;BME280;42299;35.160;26.100;2024-03-22T01:32:35;101271.13;;;8.63;100.00
56402;BME280;42299;35.160;26.100;2024-03-22T01:37:59;101267.38;;;8.84;100.00
56402;BME280;42299;35.160;26.100;2024-03-22T01:43:21;101266.78;;;8.94;100.00
56402;BME280;42299;35.160;26.100;2024-03-22T01:48:44;101258.56;;;8.83;100.00
56402;BME280;42299;35.160;26.100;2024-03-22T01:54:09;101253.59;;;8.64;100.00
56402;BME280;42299;35.160;26.100;2024-03-22T01:59:32;101255.84;;;8.80;100.00
56402;BME280;42299;35.160;26.100;2024-03-22T02:04:56;101247.13;;;9.11;100.00
56402;BME280;42299;35.160;26.100;2024-03-22T02:10:21;101237.50;;;9.13;100.00
56402;BME280;42299;35.160;26.100;2024-03-22T02:15:44;101228.38;;;9.00;100.00
56402;BME280;42299;35.160;26.100;2024-03-22T02:21:06;101231.59;;;8.90;100.00
56402;BME280;42299;35.160;26.100;2024-03-22T02:26:30;101226.16;;;8.84;100.00
56402;BME280;42299;35.160;26.100;2024-03-22T02:31:53;101234.16;;;8.89;100.00
56402;BME280;42299;35.160;26.100;2024-03-22T02:37:16;101239.38;;;8.86;100.00
56402;BME280;42299;35.160;26.100;2024-03-22T02:42:41;101231.06;;;9.02;100.00
56402;BME280;42299;35.160;26.100;2024-03-22T02:48:04;101238.66;;;8.93;100.00
56402;BME280;42299;35.160;26.100;2024-03-22T02:53:27;101239.38;;;8.86;100.00
56402;BME280;42299;35.160;26.100;2024-03-22T02:58:51;101240.03;;;8.80;100.00
56402;BME280;42299;35.160;26.100;2024-03-22T03:04:14;101243.38;;;9.03;100.00
56402;BME280;42299;35.160;26.100;2024-03-22T03:09:36;101239.94;;;9.05;100.00
56402;BME280;42299;35.160;26.100;2024-03-22T03:15:00;101235.53;;;9.04;100.00
56402;BME280;42299;35.160;26.100;2024-03-22T03:20:24;101227.28;;;8.94;100.00
56402;BME280;42299;35.160;26.100;2024-03-22T03:25:47;101228.72;;;8.83;100.00
56402;BME280;42299;35.160;26.100;2024-03-22T03:31:11;101234.00;;;8.83;100.00
56402;BME280;42299;35.160;26.100;2024-03-22T03:36:35;101235.78;;;8.84;100.00
56402;BME280;42299;35.160;26.100;2024-03-22T03:41:57;101236.50;;;8.78;100.00
56402;BME280;42299;35.160;26.100;2024-03-22T03:47:21;101238.88;;;8.70;100.00
56402;BME280;42299;35.160;26.100;2024-03-22T03:52:44;101235.53;;;8.76;100.00
56402;BME280;42299;35.160;26.100;2024-03-22T03:58:06;101237.03;;;8.96;100.00
56402;BME280;42299;35.160;26.100;2024-03-22T04:03:30;101237.47;;;8.82;100.00
56402;BME280;42299;35.160;26.100;2024-03-22T04:08:53;101243.44;;;8.76;100.00
56402;BME280;42299;35.160;26.100;2024-03-22T04:14:15;101240.91;;;9.09;100.00
56402;BME280;42299;35.160;26.100;2024-03-22T04:19:39;101242.72;;;9.10;100.00
56402;BME280;42299;35.160;26.100;2024-03-22T04:25:01;101242.03;;;9.17;100.00
56402;BME280;42299;35.160;26.100;2024-03-22T04:30:24;101250.00;;;9.18;100.00
56402;BME280;42299;35.160;26.100;2024-03-22T04:35:48;101240.69;;;9.31;100.00
56402;BME280;42299;35.160;26.100;2024-03-22T04:41:10;101243.66;;;9.75;100.00
56402;BME280;42299;35.160;26.100;2024-03-22T04:46:33;101238.22;;;11.59;100.00
56402;BME280;42299;35.160;26.100;2024-03-22T04:51:57;101230.06;;;13.08;100.00
56402;BME280;42299;35.160;26.100;2024-03-22T04:57:19;101233.44;;;14.65;100.00
56402;BME280;42299;35.160;26.100;2024-03-22T05:02:42;101217.13;;;16.08;100.00
56402;BME280;42299;35.160;26.100;2024-03-22T05:08:07;101213.47;;;17.00;100.00
56402;BME280;42299;35.160;26.100;2024-03-22T05:13:30;101219.38;;;17.72;100.00
56402;BME280;42299;35.160;26.100;2024-03-22T05:18:53;101225.38;;;18.99;90.03
56402;BME280;42299;35.160;26.100;2024-03-22T05:24:17;101218.09;;;19.79;81.98
56402;BME280;42299;35.160;26.100;2024-03-22T05:29:40;101213.88;;;20.21;76.47
56402;BME280;42299;35.160;26.100;2024-03-22T05:35:03;101209.03;;;20.43;71.61
56402;BME280;42299;35.160;26.100;2024-03-22T05:40:27;101207.88;;;21.46;65.88
56402;BME280;42299;35.160;26.100;2024-03-22T05:45:49;101216.25;;;22.47;58.08
56402;BME280;42299;35.160;26.100;2024-03-22T05:51:12;101212.78;;;23.39;53.37
56402;BME280;42299;35.160;26.100;2024-03-22T05:56:36;101221.03;;;23.92;49.95
56402;BME280;42299;35.160;26.100;2024-03-22T06:01:58;101212.63;;;24.29;48.17
56402;BME280;42299;35.160;26.100;2024-03-22T06:07:20;101206.50;;;25.48;45.54
56402;BME280;42299;35.160;26.100;2024-03-22T06:12:44;101217.72;;;26.29;42.14
56402;BME280;42299;35.160;26.100;2024-03-22T06:18:08;101216.06;;;27.46;40.40
56402;BME280;42299;35.160;26.100;2024-03-22T06:23:30;101220.69;;;28.89;37.73
56402;BME280;42299;35.160;26.100;2024-03-22T06:28:54;101211.41;;;29.75;35.38
56402;BME280;42299;35.160;26.100;2024-03-22T06:34:17;101214.75;;;29.80;34.39
56402;BME280;42299;35.160;26.100;2024-03-22T06:39:39;101207.75;;;30.83;33.60
56402;BME280;42299;35.160;26.100;2024-03-22T06:45:04;101208.09;;;31.78;31.35
56402;BME280;42299;35.160;26.100;2024-03-22T06:50:26;101204.25;;;31.94;30.32
56402;BME280;42299;35.160;26.100;2024-03-22T06:55:49;101205.00;;;32.77;29.50
56402;BME280;42299;35.160;26.100;2024-03-22T07:01:13;101207.91;;;33.39;28.01
56402;BME280;42299;35.160;26.100;2024-03-22T07:06:36;101198.72;;;33.40;27.57
56402;BME280;42299;35.160;26.100;2024-03-22T07:11:59;101197.38;;;32.95;26.62
56402;BME280;42299;35.160;26.100;2024-03-22T07:17:23;101198.44;;;33.55;26.48
56402;BME280;42299;35.160;26.100;2024-03-22T07:22:45;101190.31;;;33.79;25.01
56402;BME280;42299;35.160;26.100;2024-03-22T07:28:09;101200.69;;;33.38;24.68
56402;BME280;42299;35.160;26.100;2024-03-22T07:33:33;101197.97;;;33.87;24.16
56402;BME280;42299;35.160;26.100;2024-03-22T07:38:55;101198.50;;;33.92;23.67
56402;BME280;42299;35.160;26.100;2024-03-22T07:44:19;101188.25;;;34.07;24.38
56402;BME280;42299;35.160;26.100;2024-03-22T07:49:43;101195.06;;;35.30;23.25
56402;BME280;42299;35.160;26.100;2024-03-22T07:55:06;101196.31;;;36.24;22.13
56402;BME280;42299;35.160;26.100;2024-03-22T08:00:29;101184.94;;;35.41;22.08
56402;BME280;42299;35.160;26.100;2024-03-22T08:05:53;101184.13;;;35.95;22.29
56402;BME280;42299;35.160;26.100;2024-03-22T08:11:16;101188.91;;;36.57;22.09
56402;BME280;42299;35.160;26.100;2024-03-22T08:16:38;101184.09;;;37.42;20.92
56402;BME280;42299;35.160;26.100;2024-03-22T08:22:03;101184.72;;;36.73;20.06
56402;BME280;42299;35.160;26.100;2024-03-22T08:27:25;101182.00;;;37.25;19.81
56402;BME280;42299;35.160;26.100;2024-03-22T08:32:48;101169.22;;;37.14;19.73
56402;BME280;42299;35.160;26.100;2024-03-22T08:38:12;101165.84;;;36.05;19.86
56402;BME280;42299;35.160;26.100;2024-03-22T08:43:35;101164.66;;;35.87;19.81
56402;BME280;42299;35.160;26.100;2024-03-22T08:48:58;101154.66;;;35.97;19.87
56402;BME280;42299;35.160;26.100;2024-03-22T08:54:22;101150.06;;;36.18;19.38
56402;BME280;42299;35.160;26.100;2024-03-22T08:59:45;101155.97;;;36.87;19.22
56402;BME280;42299;35.160;26.100;2024-03-22T09:05:08;101149.34;;;37.50;18.78
56402;BME280;42299;35.160;26.100;2024-03-22T09:10:33;101148.13;;;37.34;19.12
56402;BME280;42299;35.160;26.100;2024-03-22T09:15:59;101148.06;;;37.24;18.31
56402;BME280;42299;35.160;26.100;2024-03-22T09:21:22;101141.44;;;37.36;18.66
56402;BME280;42299;35.160;26.100;2024-03-22T09:26:47;101131.94;;;35.62;20.62
56402;BME280;42299;35.160;26.100;2024-03-22T09:32:09;101129.28;;;33.41;22.88
56402;BME280;42299;35.160;26.100;2024-03-22T09:37:32;101127.09;;;32.70;24.42
56402;BME280;42299;35.160;26.100;2024-03-22T09:42:59;101119.84;;;32.56;23.38
56402;BME280;42299;35.160;26.100;2024-03-22T09:48:25;101115.72;;;32.89;23.57
56402;BME280;42299;35.160;26.100;2024-03-22T09:53:49;101125.72;;;33.51;23.18
56402;BME280;42299;35.160;26.100;2024-03-22T09:59:13;101123.25;;;33.23;23.53
56402;BME280;42299;35.160;26.100;2024-03-22T10:04:35;101119.84;;;32.56;25.11
56402;BME280;42299;35.160;26.100;2024-03-22T10:09:58;101133.91;;;32.37;26.11
56402;BME280;42299;35.160;26.100;2024-03-22T10:15:23;101128.22;;;32.93;25.84
56402;BME280;42299;35.160;26.100;2024-03-22T10:20:47;101136.19;;;32.83;26.26
56402;BME280;42299;35.160;26.100;2024-03-22T10:26:10;101122.94;;;33.28;26.05
56402;BME280;42299;35.160;26.100;2024-03-22T10:31:34;101120.84;;;33.18;25.51
56402;BME280;42299;35.160;26.100;2024-03-22T10:36:59;101103.91;;;32.88;25.95
56402;BME280;42299;35.160;26.100;2024-03-22T10:42:22;101104.81;;;32.36;26.32
56402;BME280;42299;35.160;26.100;2024-03-22T10:47:46;101097.72;;;31.53;27.24
56402;BME280;42299;35.160;26.100;2024-03-22T10:53:13;101096.31;;;31.34;27.49
56402;BME280;42299;35.160;26.100;2024-03-22T10:58:39;101094.69;;;31.03;28.20
56402;BME280;42299;35.160;26.100;2024-03-22T11:04:05;101088.25;;;30.01;29.47
56402;BME280;42299;35.160;26.100;2024-03-22T11:09:30;101089.00;;;29.73;30.48
56402;BME280;42299;35.160;26.100;2024-03-22T11:14:53;101090.22;;;29.05;30.98
56402;BME280;42299;35.160;26.100;2024-03-22T11:20:17;101085.88;;;27.27;33.96
56402;BME280;42299;35.160;26.100;2024-03-22T11:25:40;101082.56;;;26.02;35.90
56402;BME280;42299;35.160;26.100;2024-03-22T11:31:03;101076.91;;;25.21;38.13
56402;BME280;42299;35.160;26.100;2024-03-22T11:36:27;101063.19;;;25.04;39.71
56402;BME280;42299;35.160;26.100;2024-03-22T11:41:50;101061.69;;;24.72;39.41
56402;BME280;42299;35.160;26.100;2024-03-22T11:47:13;101063.03;;;24.11;41.80
56402;BME280;42299;35.160;26.100;2024-03-22T11:59:19;101082.59;;;24.42;40.38
56402;BME280;42299;35.160;26.100;2024-03-22T12:04:42;101075.56;;;24.38;40.69
56402;BME280;42299;35.160;26.100;2024-03-22T12:10:07;101071.81;;;23.91;41.75
56402;BME280;42299;35.160;26.100;2024-03-22T12:15:30;101072.78;;;23.34;43.14
56402;BME280;42299;35.160;26.100;2024-03-22T12:20:52;101067.75;;;22.94;44.50
56402;BME280;42299;35.160;26.100;2024-03-22T12:26:16;101072.34;;;22.60;47.04
56402;BME280;42299;35.160;26.100;2024-03-22T12:31:39;101067.28;;;22.49;47.06
56402;BME280;42299;35.160;26.100;2024-03-22T12:37:02;101065.66;;;22.44;48.27
56402;BME280;42299;35.160;26.100;2024-03-22T12:42:26;101065.31;;;22.56;47.83
56402;BME280;42299;35.160;26.100;2024-03-22T12:47:49;101058.09;;;22.56;47.51
56402;BME280;42299;35.160;26.100;2024-03-22T12:53:12;101061.72;;;22.55;46.09
56402;BME280;42299;35.160;26.100;2024-03-22T12:58:36;101057.97;;;22.61;44.80
56402;BME280;42299;35.160;26.100;2024-03-22T13:03:58;101053.81;;;22.49;44.60
56402;BME280;42299;35.160;26.100;2024-03-22T13:09:21;101061.53;;;22.31;44.83
56402;BME280;42299;35.160;26.100;2024-03-22T13:14:45;101059.78;;;22.30;44.15
56402;BME280;42299;35.160;26.100;2024-03-22T13:20:09;101065.13;;;21.99;47.09
56402;BME280;42299;35.160;26.100;2024-03-22T13:25:35;101067.66;;;21.68;48.91
56402;BME280;42299;35.160;26.100;2024-03-22T13:31:04;101055.66;;;21.81;50.82
56402;BME280;42299;35.160;26.100;2024-03-22T13:36:27;101062.69;;;21.53;52.19
56402;BME280;42299;35.160;26.100;2024-03-22T13:41:53;101060.84;;;21.53;50.75
56402;BME280;42299;35.160;26.100;2024-03-22T13:47:17;101060.75;;;21.58;51.00
56402;BME280;42299;35.160;26.100;2024-03-22T13:52:40;101060.91;;;21.52;48.01
56402;BME280;42299;35.160;26.100;2024-03-22T13:58:02;101055.19;;;21.28;48.05
56402;BME280;42299;35.160;26.100;2024-03-22T14:03:26;101066.16;;;21.19;48.88
56402;BME280;42299;35.160;26.100;2024-03-22T14:08:49;101060.19;;;21.05;50.03
56402;BME280;42299;35.160;26.100;2024-03-22T14:14:15;101056.00;;;20.93;53.72
56402;BME280;42299;35.160;26.100;2024-03-22T14:19:39;101063.41;;;20.81;54.60
56402;BME280;42299;35.160;26.100;2024-03-22T14:25:01;101069.31;;;20.98;67.09
56402;BME280;42299;35.160;26.100;2024-03-22T14:30:24;101068.06;;;20.73;76.91
56402;BME280;42299;35.160;26.100;2024-03-22T14:35:48;101080.22;;;20.47;85.94
56402;BME280;42299;35.160;26.100;2024-03-22T14:41:11;101068.09;;;20.26;93.00
56402;BME280;42299;35.160;26.100;2024-03-22T14:46:34;101069.25;;;20.59;92.31
56402;BME280;42299;35.160;26.100;2024-03-22T14:51:58;101065.66;;;20.60;89.38
56402;BME280;42299;35.160;26.100;2024-03-22T14:57:21;101069.47;;;20.01;87.94
56402;BME280;42299;35.160;26.100;2024-03-22T15:02:43;101071.28;;;19.47;90.25
56402;BME280;42299;35.160;26.100;2024-03-22T15:08:09;101069.56;;;19.41;88.77
56402;BME280;42299;35.160;26.100;2024-03-22T15:13:32;101067.88;;;19.34;85.54
56402;BME280;42299;35.160;26.100;2024-03-22T15:18:54;101065.06;;;18.84;89.55
56402;BME280;42299;35.160;26.100;2024-03-22T15:24:18;101069.63;;;18.73;90.68
56402;BME280;42299;35.160;26.100;2024-03-22T15:29:41;101083.22;;;18.51;100.00
56402;BME280;42299;35.160;26.100;2024-03-22T15:35:04;101080.09;;;18.13;100.00
56402;BME280;42299;35.160;26.100;2024-03-22T15:40:29;101073.03;;;18.07;100.00
56402;BME280;42299;35.160;26.100;2024-03-22T15:45:53;101084.03;;;17.74;100.00
56402;BME280;42299;35.160;26.100;2024-03-22T15:51:16;101086.81;;;17.57;100.00
56402;BME280;42299;35.160;26.100;2024-03-22T15:56:40;101087.00;;;17.27;100.00
56402;BME280;42299;35.160;26.100;2024-03-22T16:02:03;101075.56;;;17.08;100.00
56402;BME280;42299;35.160;26.100;2024-03-22T16:07:25;101078.34;;;16.91;100.00
56402;BME280;42299;35.160;26.100;2024-03-22T16:12:49;101075.75;;;16.79;100.00
56402;BME280;42299;35.160;26.100;2024-03-22T16:18:12;101081.13;;;16.55;100.00
56402;BME280;42299;35.160;26.100;2024-03-22T16:23:35;101079.44;;;16.29;100.00
56402;BME280;42299;35.160;26.100;2024-03-22T16:28:59;101080.38;;;16.16;100.00
56402;BME280;42299;35.160;26.100;2024-03-22T16:34:22;101099.91;;;16.20;100.00
56402;BME280;42299;35.160;26.100;2024-03-22T16:39:46;101097.25;;;16.02;100.00
56402;BME280;42299;35.160;26.100;2024-03-22T16:45:11;101099.94;;;15.76;100.00
56402;BME280;42299;35.160;26.100;2024-03-22T16:50:35;101102.56;;;15.47;100.00
56402;BME280;42299;35.160;26.100;2024-03-22T16:55:57;101110.53;;;15.41;100.00
56402;BME280;42299;35.160;26.100;2024-03-22T17:01:22;101115.81;;;15.21;100.00
56402;BME280;42299;35.160;26.100;2024-03-22T17:06:45;101118.47;;;15.13;100.00
56402;BME280;42299;35.160;26.100;2024-03-22T17:12:08;101123.72;;;14.98;100.00
56402;BME280;42299;35.160;26.100;2024-03-22T17:17:31;101128.13;;;14.90;100.00
56402;BME280;42299;35.160;26.100;2024-03-22T17:22:54;101125.44;;;14.77;100.00
56402;BME280;42299;35.160;26.100;2024-03-22T17:28:17;101135.09;;;14.64;100.00
56402;BME280;42299;35.160;26.100;2024-03-22T17:33:42;101132.34;;;14.46;100.00
56402;BME280;42299;35.160;26.100;2024-03-22T17:39:05;101145.50;;;14.32;100.00
56402;BME280;42299;35.160;26.100;2024-03-22T17:44:28;101151.63;;;14.19;100.00
56402;BME280;42299;35.160;26.100;2024-03-22T17:49:52;101156.84;;;14.08;100.00
56402;BME280;42299;35.160;26.100;2024-03-22T17:55:14;101161.38;;;14.21;100.00
56402;BME280;42299;35.160;26.100;2024-03-22T18:00:37;101167.53;;;14.14;100.00
56402;BME280;42299;35.160;26.100;2024-03-22T18:06:02;101166.50;;;13.97;100.00
56402;BME280;42299;35.160;26.100;2024-03-22T18:11:25;101170.03;;;13.96;100.00
56402;BME280;42299;35.160;26.100;2024-03-22T18:16:48;101179.66;;;13.85;100.00
56402;BME280;42299;35.160;26.100;2024-03-22T18:22:12;101185.09;;;14.00;100.00
56402;BME280;42299;35.160;26.100;2024-03-22T18:27:34;101193.78;;;13.81;100.00
56402;BME280;42299;35.160;26.100;2024-03-22T18:32:57;101190.19;;;13.76;100.00
56402;BME280;42299;35.160;26.100;2024-03-22T18:38:21;101189.28;;;13.74;100.00
56402;BME280;42299;35.160;26.100;2024-03-22T18:43:44;101202.69;;;13.84;100.00
56402;BME280;42299;35.160;26.100;2024-03-22T18:49:06;101200.03;;;13.87;100.00
56402;BME280;42299;35.160;26.100;2024-03-22T18:54:32;101204.38;;;13.78;100.00
56402;BME280;42299;35.160;26.100;2024-03-22T18:59:54;101205.84;;;13.48;100.00
56402;BME280;42299;35.160;26.100;2024-03-22T19:05:17;101200.44;;;13.41;100.00
56402;BME280;42299;35.160;26.100;2024-03-22T19:10:41;101201.94;;;13.18;100.00
56402;BME280;42299;35.160;26.100;2024-03-22T19:16:04;101199.19;;;13.11;100.00
56402;BME280;42299;35.160;26.100;2024-03-22T19:21:27;101194.81;;;13.13;100.00
56402;BME280;42299;35.160;26.100;2024-03-22T19:26:51;101202.59;;;13.01;100.00
56402;BME280;42299;35.160;26.100;2024-03-22T19:32:17;101200.50;;;12.77;100.00
56402;BME280;42299;35.160;26.100;2024-03-22T19:37:40;101209.00;;;12.55;100.00
56402;BME280;42299;35.160;26.100;2024-03-22T19:43:04;101200.41;;;12.70;100.00
56402;BME280;42299;35.160;26.100;2024-03-22T19:48:26;101200.28;;;12.62;100.00
56402;BME280;42299;35.160;26.100;2024-03-22T19:53:50;101202.00;;;12.57;100.00
56402;BME280;42299;35.160;26.100;2024-03-22T19:59:14;101205.47;;;12.53;100.00
56402;BME280;42299;35.160;26.100;2024-03-22T20:04:37;101203.50;;;12.40;100.00
56402;BME280;42299;35.160;26.100;2024-03-22T20:09:59;101205.41;;;12.50;100.00
56402;BME280;42299;35.160;26.100;2024-03-22T20:15:25;101207.28;;;12.57;100.00
56402;BME280;42299;35.160;26.100;2024-03-22T20:20:48;101196.59;;;12.51;100.00
56402;BME280;42299;35.160;26.100;2024-03-22T20:26:10;101209.66;;;12.39;100.00
56402;BME280;42299;35.160;26.100;2024-03-22T20:31:34;101209.19;;;12.67;100.00
56402;BME280;42299;35.160;26.100;2024-03-22T20:37:00;101209.59;;;12.36;100.00
